sensor_id;sensor_type;location;lat;lon;timestamp;P1;durP1;ratioP1;P2;durP2;ratioP2
12519;SDS011;6325;49.540;8.364;2022-09-01T00:00:49;2.80;;;2.70;;
12519;SDS011;6325;49.540;8.364;2022-09-01T00:03:18;2.97;;;2.83;;
12519;SDS011;6325;49.540;8.364;2022-09-01T00:05:47;3.10;;;2.90;;
12519;SDS011;6325;49.540;8.364;2022-09-01T00:08:19;3.00;;;2.90;;
12519;SDS011;6325;49.540;8.364;2022-09-01T00:10:48;3.13;;;2.92;;
12519;SDS011;6325;49.540;8.364;2022-09-01T00:13:15;2.92;;;2.83;;
12519;SDS011;6325;49.540;8.364;2022-09-01T00:15:43;2.93;;;2.73;;
12519;SDS011;6325;49.540;8.364;2022-09-01T00:18:10;3.17;;;2.97;;
12519;SDS011;6325;49.540;8.364;2022-09-01T00:20:39;3.00;;;2.85;;
12519;SDS011;6325;49.540;8.364;2022-09-01T00:23:06;2.80;;;2.70;;
12519;SDS011;6325;49.540;8.364;2022-09-01T00:25:34;3.13;;;3.03;;
12519;SDS011;6325;49.540;8.364;2022-09-01T00:28:02;3.20;;;3.10;;
12519;SDS011;6325;49.540;8.364;2022-09-01T00:30:29;3.20;;;3.00;;
12519;SDS011;6325;49.540;8.364;2022-09-01T00:32:56;3.30;;;3.10;;
12519;SDS011;6325;49.540;8.364;2022-09-01T00:35:23;3.38;;;3.17;;
12519;SDS011;6325;49.540;8.364;2022-09-01T00:37:54;2.97;;;2.87;;
12519;SDS011;6325;49.540;8.364;2022-09-01T00:40:21;2.83;;;2.72;;
12519;SDS011;6325;49.540;8.364;2022-09-01T00:42:48;2.70;;;2.60;;
12519;SDS011;6325;49.540;8.364;2022-09-01T00:45:18;2.70;;;2.60;;
12519;SDS011;6325;49.540;8.364;2022-09-01T00:47:46;2.50;;;2.40;;
12519;SDS011;6325;49.540;8.364;2022-09-01T00:50:13;2.85;;;2.75;;
12519;SDS011;6325;49.540;8.364;2022-09-01T00:52:43;2.70;;;2.60;;
12519;SDS011;6325;49.540;8.364;2022-09-01T00:55:16;2.38;;;2.28;;
12519;SDS011;6325;49.540;8.364;2022-09-01T00:57:47;2.67;;;2.58;;
12519;SDS011;6325;49.540;8.364;2022-09-01T01:00:16;2.50;;;2.40;;
12519;SDS011;6325;49.540;8.364;2022-09-01T01:02:46;2.60;;;2.50;;
12519;SDS011;6325;49.540;8.364;2022-09-01T01:05:20;2.70;;;2.60;;
12519;SDS011;6325;49.540;8.364;2022-09-01T01:07:48;2.40;;;2.30;;
12519;SDS011;6325;49.540;8.364;2022-09-01T01:10:17;2.50;;;2.40;;
12519;SDS011;6325;49.540;8.364;2022-09-01T01:12:48;2.30;;;2.30;;
12519;SDS011;6325;49.540;8.364;2022-09-01T01:15:17;2.55;;;2.45;;
12519;SDS011;6325;49.540;8.364;2022-09-01T01:17:45;2.60;;;2.50;;
12519;SDS011;6325;49.540;8.364;2022-09-01T01:20:22;2.50;;;2.40;;
12519;SDS011;6325;49.540;8.364;2022-09-01T01:23:13;2.40;;;2.30;;
12519;SDS011;6325;49.540;8.364;2022-09-01T01:25:47;2.83;;;2.63;;
12519;SDS011;6325;49.540;8.364;2022-09-01T01:28:17;2.75;;;2.65;;
12519;SDS011;6325;49.540;8.364;2022-09-01T01:30:47;2.72;;;2.60;;
12519;SDS011;6325;49.540;8.364;2022-09-01T01:33:17;2.80;;;2.70;;
12519;SDS011;6325;49.540;8.364;2022-09-01T01:35:45;2.70;;;2.60;;
12519;SDS011;6325;49.540;8.364;2022-09-01T01:38:14;2.88;;;2.72;;
12519;SDS011;6325;49.540;8.364;2022-09-01T01:40:41;2.80;;;2.70;;
12519;SDS011;6325;49.540;8.364;2022-09-01T01:43:10;2.60;;;2.50;;
12519;SDS011;6325;49.540;8.364;2022-09-01T01:45:47;2.42;;;2.33;;
12519;SDS011;6325;49.540;8.364;2022-09-01T01:48:17;2.75;;;2.65;;
12519;SDS011;6325;49.540;8.364;2022-09-01T01:50:47;2.38;;;2.28;;
12519;SDS011;6325;49.540;8.364;2022-09-01T01:53:14;2.30;;;2.20;;
12519;SDS011;6325;49.540;8.364;2022-09-01T01:55:43;2.50;;;2.40;;
12519;SDS011;6325;49.540;8.364;2022-09-01T01:58:14;2.45;;;2.35;;
12519;SDS011;6325;49.540;8.364;2022-09-01T02:00:44;2.38;;;2.20;;
12519;SDS011;6325;49.540;8.364;2022-09-01T02:03:11;2.40;;;2.30;;
12519;SDS011;6325;49.540;8.364;2022-09-01T02:05:43;2.20;;;2.10;;
12519;SDS011;6325;49.540;8.364;2022-09-01T02:08:11;2.60;;;2.50;;
12519;SDS011;6325;49.540;8.364;2022-09-01T02:10:40;2.60;;;2.50;;
12519;SDS011;6325;49.540;8.364;2022-09-01T02:13:09;2.50;;;2.40;;
12519;SDS011;6325;49.540;8.364;2022-09-01T02:15:42;2.50;;;2.40;;
12519;SDS011;6325;49.540;8.364;2022-09-01T02:18:12;2.50;;;2.40;;
12519;SDS011;6325;49.540;8.364;2022-09-01T02:20:40;2.20;;;2.10;;
12519;SDS011;6325;49.540;8.364;2022-09-01T02:23:08;2.38;;;2.28;;
12519;SDS011;6325;49.540;8.364;2022-09-01T02:25:37;2.30;;;2.20;;
12519;SDS011;6325;49.540;8.364;2022-09-01T02:28:08;2.20;;;2.10;;
12519;SDS011;6325;49.540;8.364;2022-09-01T02:30:39;2.13;;;2.03;;
12519;SDS011;6325;49.540;8.364;2022-09-01T02:33:08;2.03;;;1.92;;
12519;SDS011;6325;49.540;8.364;2022-09-01T02:35:35;2.20;;;2.10;;
12519;SDS011;6325;49.540;8.364;2022-09-01T02:38:03;2.10;;;2.00;;
12519;SDS011;6325;49.540;8.364;2022-09-01T02:40:32;2.33;;;2.22;;
12519;SDS011;6325;49.540;8.364;2022-09-01T02:43:00;2.30;;;2.20;;
12519;SDS011;6325;49.540;8.364;2022-09-01T02:45:27;1.85;;;1.85;;
12519;SDS011;6325;49.540;8.364;2022-09-01T02:47:54;2.10;;;2.00;;
12519;SDS011;6325;49.540;8.364;2022-09-01T02:50:24;2.00;;;2.00;;
12519;SDS011;6325;49.540;8.364;2022-09-01T02:52:53;1.95;;;1.90;;
12519;SDS011;6325;49.540;8.364;2022-09-01T02:55:21;2.08;;;1.98;;
12519;SDS011;6325;49.540;8.364;2022-09-01T02:57:51;1.80;;;1.80;;
12519;SDS011;6325;49.540;8.364;2022-09-01T03:00:19;1.98;;;1.88;;
12519;SDS011;6325;49.540;8.364;2022-09-01T03:02:53;2.17;;;2.07;;
12519;SDS011;6325;49.540;8.364;2022-09-01T03:05:22;2.08;;;1.98;;
12519;SDS011;6325;49.540;8.364;2022-09-01T03:07:53;1.90;;;1.90;;
12519;SDS011;6325;49.540;8.364;2022-09-01T03:10:23;2.30;;;2.10;;
12519;SDS011;6325;49.540;8.364;2022-09-01T03:12:56;2.10;;;2.00;;
12519;SDS011;6325;49.540;8.364;2022-09-01T03:15:24;2.00;;;1.90;;
12519;SDS011;6325;49.540;8.364;2022-09-01T03:17:52;2.00;;;1.90;;
12519;SDS011;6325;49.540;8.364;2022-09-01T03:20:19;1.90;;;1.90;;
12519;SDS011;6325;49.540;8.364;2022-09-01T03:22:48;2.00;;;2.00;;
12519;SDS011;6325;49.540;8.364;2022-09-01T03:25:17;2.10;;;2.00;;
12519;SDS011;6325;49.540;8.364;2022-09-01T03:27:45;1.85;;;1.80;;
12519;SDS011;6325;49.540;8.364;2022-09-01T03:30:12;1.70;;;1.70;;
12519;SDS011;6325;49.540;8.364;2022-09-01T03:32:40;1.60;;;1.60;;
12519;SDS011;6325;49.540;8.364;2022-09-01T03:35:08;1.80;;;1.70;;
12519;SDS011;6325;49.540;8.364;2022-09-01T03:37:35;2.30;;;2.20;;
12519;SDS011;6325;49.540;8.364;2022-09-01T03:40:05;1.90;;;1.80;;
12519;SDS011;6325;49.540;8.364;2022-09-01T03:42:34;1.80;;;1.70;;
12519;SDS011;6325;49.540;8.364;2022-09-01T03:45:02;1.70;;;1.70;;
12519;SDS011;6325;49.540;8.364;2022-09-01T03:47:33;1.70;;;1.70;;
12519;SDS011;6325;49.540;8.364;2022-09-01T03:50:04;1.90;;;1.80;;
12519;SDS011;6325;49.540;8.364;2022-09-01T03:52:34;1.77;;;1.77;;
12519;SDS011;6325;49.540;8.364;2022-09-01T03:55:07;1.77;;;1.77;;
12519;SDS011;6325;49.540;8.364;2022-09-01T03:57:35;1.73;;;1.73;;
12519;SDS011;6325;49.540;8.364;2022-09-01T04:00:07;1.60;;;1.60;;
12519;SDS011;6325;49.540;8.364;2022-09-01T04:02:47;1.83;;;1.80;;
12519;SDS011;6325;49.540;8.364;2022-09-01T04:05:17;2.10;;;2.00;;
12519;SDS011;6325;49.540;8.364;2022-09-01T04:07:46;1.70;;;1.70;;
12519;SDS011;6325;49.540;8.364;2022-09-01T04:10:16;1.67;;;1.67;;
12519;SDS011;6325;49.540;8.364;2022-09-01T04:12:43;1.58;;;1.58;;
12519;SDS011;6325;49.540;8.364;2022-09-01T04:15:13;1.50;;;1.50;;
12519;SDS011;6325;49.540;8.364;2022-09-01T04:17:42;1.70;;;1.60;;
12519;SDS011;6325;49.540;8.364;2022-09-01T04:20:33;1.58;;;1.50;;
12519;SDS011;6325;49.540;8.364;2022-09-01T04:23:13;1.70;;;1.60;;
12519;SDS011;6325;49.540;8.364;2022-09-01T04:25:46;1.75;;;1.75;;
12519;SDS011;6325;49.540;8.364;2022-09-01T04:28:15;1.50;;;1.50;;
12519;SDS011;6325;49.540;8.364;2022-09-01T04:30:47;1.40;;;1.40;;
12519;SDS011;6325;49.540;8.364;2022-09-01T04:33:16;1.60;;;1.50;;
12519;SDS011;6325;49.540;8.364;2022-09-01T04:35:43;1.42;;;1.42;;
12519;SDS011;6325;49.540;8.364;2022-09-01T04:38:10;1.50;;;1.50;;
12519;SDS011;6325;49.540;8.364;2022-09-01T04:40:40;1.50;;;1.50;;
12519;SDS011;6325;49.540;8.364;2022-09-01T04:43:09;1.70;;;1.60;;
12519;SDS011;6325;49.540;8.364;2022-09-01T04:45:36;1.40;;;1.40;;
12519;SDS011;6325;49.540;8.364;2022-09-01T04:48:05;1.50;;;1.40;;
12519;SDS011;6325;49.540;8.364;2022-09-01T04:50:32;1.40;;;1.40;;
12519;SDS011;6325;49.540;8.364;2022-09-01T04:52:59;1.55;;;1.55;;
12519;SDS011;6325;49.540;8.364;2022-09-01T04:55:30;1.60;;;1.60;;
12519;SDS011;6325;49.540;8.364;2022-09-01T04:57:58;1.70;;;1.60;;
12519;SDS011;6325;49.540;8.364;2022-09-01T05:00:31;1.50;;;1.50;;
12519;SDS011;6325;49.540;8.364;2022-09-01T05:03:00;1.60;;;1.50;;
12519;SDS011;6325;49.540;8.364;2022-09-01T05:05:34;1.70;;;1.70;;
12519;SDS011;6325;49.540;8.364;2022-09-01T05:08:03;1.52;;;1.50;;
12519;SDS011;6325;49.540;8.364;2022-09-01T05:10:30;1.55;;;1.55;;
12519;SDS011;6325;49.540;8.364;2022-09-01T05:13:00;1.80;;;1.70;;
12519;SDS011;6325;49.540;8.364;2022-09-01T05:15:35;1.70;;;1.60;;
12519;SDS011;6325;49.540;8.364;2022-09-01T05:18:04;1.60;;;1.50;;
12519;SDS011;6325;49.540;8.364;2022-09-01T05:20:37;1.50;;;1.50;;
12519;SDS011;6325;49.540;8.364;2022-09-01T05:23:08;1.73;;;1.63;;
12519;SDS011;6325;49.540;8.364;2022-09-01T05:25:37;1.63;;;1.60;;
12519;SDS011;6325;49.540;8.364;2022-09-01T05:28:08;1.70;;;1.60;;
12519;SDS011;6325;49.540;8.364;2022-09-01T05:30:39;1.77;;;1.67;;
12519;SDS011;6325;49.540;8.364;2022-09-01T05:33:07;1.70;;;1.60;;
12519;SDS011;6325;49.540;8.364;2022-09-01T05:35:36;1.67;;;1.58;;
12519;SDS011;6325;49.540;8.364;2022-09-01T05:38:08;2.50;;;1.60;;
12519;SDS011;6325;49.540;8.364;2022-09-01T05:40:37;1.65;;;1.60;;
12519;SDS011;6325;49.540;8.364;2022-09-01T05:43:06;1.58;;;1.50;;
12519;SDS011;6325;49.540;8.364;2022-09-01T05:45:38;1.80;;;1.70;;
12519;SDS011;6325;49.540;8.364;2022-09-01T05:48:09;1.50;;;1.50;;
12519;SDS011;6325;49.540;8.364;2022-09-01T05:50:40;1.50;;;1.50;;
12519;SDS011;6325;49.540;8.364;2022-09-01T05:53:08;2.17;;;2.00;;
12519;SDS011;6325;49.540;8.364;2022-09-01T05:55:40;2.07;;;1.97;;
12519;SDS011;6325;49.540;8.364;2022-09-01T05:58:11;1.77;;;1.70;;
12519;SDS011;6325;49.540;8.364;2022-09-01T06:00:42;1.70;;;1.70;;
12519;SDS011;6325;49.540;8.364;2022-09-01T06:03:12;1.67;;;1.65;;
12519;SDS011;6325;49.540;8.364;2022-09-01T06:05:39;2.30;;;2.00;;
12519;SDS011;6325;49.540;8.364;2022-09-01T06:08:09;1.85;;;1.75;;
12519;SDS011;6325;49.540;8.364;2022-09-01T06:10:38;1.70;;;1.60;;
12519;SDS011;6325;49.540;8.364;2022-09-01T06:13:07;2.03;;;1.90;;
12519;SDS011;6325;49.540;8.364;2022-09-01T06:15:35;2.45;;;1.90;;
12519;SDS011;6325;49.540;8.364;2022-09-01T06:18:05;1.70;;;1.60;;
12519;SDS011;6325;49.540;8.364;2022-09-01T06:20:37;1.70;;;1.60;;
12519;SDS011;6325;49.540;8.364;2022-09-01T06:23:06;1.70;;;1.60;;
12519;SDS011;6325;49.540;8.364;2022-09-01T06:25:35;1.60;;;1.60;;
12519;SDS011;6325;49.540;8.364;2022-09-01T06:28:03;1.70;;;1.60;;
12519;SDS011;6325;49.540;8.364;2022-09-01T06:30:32;1.70;;;1.60;;
12519;SDS011;6325;49.540;8.364;2022-09-01T06:33:00;1.60;;;1.60;;
12519;SDS011;6325;49.540;8.364;2022-09-01T06:35:32;1.38;;;1.38;;
12519;SDS011;6325;49.540;8.364;2022-09-01T06:37:59;1.60;;;1.50;;
12519;SDS011;6325;49.540;8.364;2022-09-01T06:40:27;1.90;;;1.80;;
12519;SDS011;6325;49.540;8.364;2022-09-01T06:42:54;1.73;;;1.70;;
12519;SDS011;6325;49.540;8.364;2022-09-01T06:45:21;1.70;;;1.70;;
12519;SDS011;6325;49.540;8.364;2022-09-01T06:47:49;1.85;;;1.75;;
12519;SDS011;6325;49.540;8.364;2022-09-01T06:50:17;2.30;;;2.20;;
12519;SDS011;6325;49.540;8.364;2022-09-01T06:52:48;2.30;;;2.10;;
12519;SDS011;6325;49.540;8.364;2022-09-01T06:55:25;1.90;;;1.80;;
12519;SDS011;6325;49.540;8.364;2022-09-01T06:57:56;2.13;;;1.98;;
12519;SDS011;6325;49.540;8.364;2022-09-01T07:00:23;1.90;;;1.80;;
12519;SDS011;6325;49.540;8.364;2022-09-01T07:02:51;1.95;;;1.85;;
12519;SDS011;6325;49.540;8.364;2022-09-01T07:05:21;2.00;;;1.90;;
12519;SDS011;6325;49.540;8.364;2022-09-01T07:07:51;1.90;;;1.80;;
12519;SDS011;6325;49.540;8.364;2022-09-01T07:10:19;2.03;;;1.92;;
12519;SDS011;6325;49.540;8.364;2022-09-01T07:12:48;2.25;;;2.15;;
12519;SDS011;6325;49.540;8.364;2022-09-01T07:15:15;2.10;;;2.00;;
12519;SDS011;6325;49.540;8.364;2022-09-01T07:17:45;1.80;;;1.80;;
12519;SDS011;6325;49.540;8.364;2022-09-01T07:20:14;2.05;;;1.95;;
12519;SDS011;6325;49.540;8.364;2022-09-01T07:22:41;1.60;;;1.60;;
12519;SDS011;6325;49.540;8.364;2022-09-01T07:25:10;1.90;;;1.80;;
12519;SDS011;6325;49.540;8.364;2022-09-01T07:27:38;1.85;;;1.75;;
12519;SDS011;6325;49.540;8.364;2022-09-01T07:30:06;1.90;;;1.80;;
12519;SDS011;6325;49.540;8.364;2022-09-01T07:32:36;2.13;;;2.03;;
12519;SDS011;6325;49.540;8.364;2022-09-01T07:35:05;1.63;;;1.63;;
12519;SDS011;6325;49.540;8.364;2022-09-01T07:37:33;1.75;;;1.65;;
12519;SDS011;6325;49.540;8.364;2022-09-01T07:40:03;1.70;;;1.70;;
12519;SDS011;6325;49.540;8.364;2022-09-01T07:42:33;2.60;;;2.40;;
12519;SDS011;6325;49.540;8.364;2022-09-01T07:45:00;2.80;;;2.53;;
12519;SDS011;6325;49.540;8.364;2022-09-01T07:47:34;2.70;;;2.50;;
12519;SDS011;6325;49.540;8.364;2022-09-01T07:50:02;2.72;;;2.30;;
12519;SDS011;6325;49.540;8.364;2022-09-01T07:52:32;2.28;;;2.10;;
12519;SDS011;6325;49.540;8.364;2022-09-01T07:55:00;1.88;;;1.77;;
12519;SDS011;6325;49.540;8.364;2022-09-01T07:57:26;2.55;;;2.35;;
12519;SDS011;6325;49.540;8.364;2022-09-01T07:59:55;2.20;;;2.10;;
12519;SDS011;6325;49.540;8.364;2022-09-01T08:02:21;2.10;;;2.00;;
12519;SDS011;6325;49.540;8.364;2022-09-01T08:04:49;2.22;;;2.08;;
12519;SDS011;6325;49.540;8.364;2022-09-01T08:07:16;2.57;;;2.37;;
12519;SDS011;6325;49.540;8.364;2022-09-01T08:09:43;2.78;;;2.38;;
12519;SDS011;6325;49.540;8.364;2022-09-01T08:12:10;2.78;;;2.55;;
12519;SDS011;6325;49.540;8.364;2022-09-01T08:14:38;2.67;;;2.47;;
12519;SDS011;6325;49.540;8.364;2022-09-01T08:17:06;2.50;;;2.30;;
12519;SDS011;6325;49.540;8.364;2022-09-01T08:19:33;2.35;;;2.17;;
12519;SDS011;6325;49.540;8.364;2022-09-01T08:22:00;2.20;;;2.10;;
12519;SDS011;6325;49.540;8.364;2022-09-01T08:24:28;2.50;;;2.30;;
12519;SDS011;6325;49.540;8.364;2022-09-01T08:26:55;2.47;;;2.30;;
12519;SDS011;6325;49.540;8.364;2022-09-01T08:29:22;2.50;;;2.40;;
12519;SDS011;6325;49.540;8.364;2022-09-01T08:34:26;2.22;;;2.10;;
12519;SDS011;6325;49.540;8.364;2022-09-01T09:00:44;2.40;;;2.30;;
12519;SDS011;6325;49.540;8.364;2022-09-01T09:21:43;3.20;;;3.00;;
12519;SDS011;6325;49.540;8.364;2022-09-01T09:24:20;2.55;;;2.45;;
12519;SDS011;6325;49.540;8.364;2022-09-01T09:27:08;2.30;;;2.20;;
12519;SDS011;6325;49.540;8.364;2022-09-01T09:30:02;2.40;;;2.30;;
12519;SDS011;6325;49.540;8.364;2022-09-01T09:33:34;2.58;;;2.38;;
12519;SDS011;6325;49.540;8.364;2022-09-01T09:36:16;2.90;;;2.70;;
12519;SDS011;6325;49.540;8.364;2022-09-01T09:39:16;2.50;;;2.40;;
12519;SDS011;6325;49.540;8.364;2022-09-01T09:42:09;2.83;;;2.63;;
12519;SDS011;6325;49.540;8.364;2022-09-01T09:44:46;3.00;;;2.80;;
12519;SDS011;6325;49.540;8.364;2022-09-01T09:47:34;3.50;;;3.30;;
12519;SDS011;6325;49.540;8.364;2022-09-01T09:53:27;3.00;;;2.80;;
12519;SDS011;6325;49.540;8.364;2022-09-01T10:00:41;5.93;;;5.32;;
12519;SDS011;6325;49.540;8.364;2022-09-01T10:03:02;3.90;;;3.60;;
12519;SDS011;6325;49.540;8.364;2022-09-01T10:06:03;2.80;;;2.60;;
12519;SDS011;6325;49.540;8.364;2022-09-01T10:16:02;2.60;;;2.50;;
12519;SDS011;6325;49.540;8.364;2022-09-01T10:22:25;2.65;;;2.55;;
12519;SDS011;6325;49.540;8.364;2022-09-01T10:25:15;3.10;;;2.90;;
12519;SDS011;6325;49.540;8.364;2022-09-01T10:31:15;2.90;;;2.80;;
12519;SDS011;6325;49.540;8.364;2022-09-01T10:36:04;2.70;;;2.60;;
12519;SDS011;6325;49.540;8.364;2022-09-01T10:56:20;2.67;;;2.53;;
12519;SDS011;6325;49.540;8.364;2022-09-01T10:59:05;2.72;;;2.53;;
12519;SDS011;6325;49.540;8.364;2022-09-01T11:02:09;2.58;;;2.47;;
12519;SDS011;6325;49.540;8.364;2022-09-01T11:05:16;2.70;;;2.60;;
12519;SDS011;6325;49.540;8.364;2022-09-01T11:10:53;2.55;;;2.35;;
12519;SDS011;6325;49.540;8.364;2022-09-01T11:13:32;2.03;;;1.92;;
12519;SDS011;6325;49.540;8.364;2022-09-01T11:18:55;2.53;;;2.43;;
12519;SDS011;6325;49.540;8.364;2022-09-01T11:22:07;2.50;;;2.40;;
12519;SDS011;6325;49.540;8.364;2022-09-01T11:31:25;2.30;;;2.20;;
12519;SDS011;6325;49.540;8.364;2022-09-01T11:36:56;2.22;;;2.13;;
12519;SDS011;6325;49.540;8.364;2022-09-01T11:39:52;2.00;;;1.90;;
12519;SDS011;6325;49.540;8.364;2022-09-01T11:42:42;2.00;;;1.90;;
12519;SDS011;6325;49.540;8.364;2022-09-01T11:45:16;1.98;;;1.90;;
12519;SDS011;6325;49.540;8.364;2022-09-01T11:47:47;1.70;;;1.70;;
12519;SDS011;6325;49.540;8.364;2022-09-01T11:50:17;2.30;;;2.10;;
12519;SDS011;6325;49.540;8.364;2022-09-01T11:52:53;2.20;;;2.00;;
12519;SDS011;6325;49.540;8.364;2022-09-01T11:55:29;2.10;;;2.00;;
12519;SDS011;6325;49.540;8.364;2022-09-01T11:58:08;2.10;;;2.00;;
12519;SDS011;6325;49.540;8.364;2022-09-01T12:00:57;1.80;;;1.80;;
12519;SDS011;6325;49.540;8.364;2022-09-01T12:03:43;1.75;;;1.70;;
12519;SDS011;6325;49.540;8.364;2022-09-01T12:06:18;2.33;;;2.13;;
12519;SDS011;6325;49.540;8.364;2022-09-01T12:09:07;2.03;;;1.92;;
12519;SDS011;6325;49.540;8.364;2022-09-01T12:11:51;1.75;;;1.65;;
12519;SDS011;6325;49.540;8.364;2022-09-01T12:14:26;1.60;;;1.60;;
12519;SDS011;6325;49.540;8.364;2022-09-01T12:17:10;1.75;;;1.70;;
12519;SDS011;6325;49.540;8.364;2022-09-01T12:19:58;1.60;;;1.60;;
12519;SDS011;6325;49.540;8.364;2022-09-01T12:23:11;1.45;;;1.45;;
12519;SDS011;6325;49.540;8.364;2022-09-01T12:26:00;1.40;;;1.40;;
12519;SDS011;6325;49.540;8.364;2022-09-01T13:17:42;1.70;;;1.70;;
12519;SDS011;6325;49.540;8.364;2022-09-01T13:22:21;1.60;;;1.55;;
12519;SDS011;6325;49.540;8.364;2022-09-01T13:24:39;1.50;;;1.50;;
12519;SDS011;6325;49.540;8.364;2022-09-01T13:27:30;2.03;;;1.92;;
12519;SDS011;6325;49.540;8.364;2022-09-01T13:33:54;1.88;;;1.77;;
12519;SDS011;6325;49.540;8.364;2022-09-01T13:36:40;1.48;;;1.48;;
12519;SDS011;6325;49.540;8.364;2022-09-01T13:59:55;1.80;;;1.70;;
12519;SDS011;6325;49.540;8.364;2022-09-01T14:02:42;1.80;;;1.80;;
12519;SDS011;6325;49.540;8.364;2022-09-01T14:05:52;1.65;;;1.65;;
12519;SDS011;6325;49.540;8.364;2022-09-01T14:08:55;1.70;;;1.70;;
12519;SDS011;6325;49.540;8.364;2022-09-01T14:18:58;1.90;;;1.83;;
12519;SDS011;6325;49.540;8.364;2022-09-01T14:21:51;1.52;;;1.52;;
12519;SDS011;6325;49.540;8.364;2022-09-01T14:25:00;1.30;;;1.30;;
12519;SDS011;6325;49.540;8.364;2022-09-01T14:27:49;1.52;;;1.52;;
12519;SDS011;6325;49.540;8.364;2022-09-01T14:30:30;1.45;;;1.45;;
12519;SDS011;6325;49.540;8.364;2022-09-01T14:33:31;1.70;;;1.60;;
12519;SDS011;6325;49.540;8.364;2022-09-01T14:38:54;1.73;;;1.73;;
12519;SDS011;6325;49.540;8.364;2022-09-01T14:41:22;1.90;;;1.80;;
12519;SDS011;6325;49.540;8.364;2022-09-01T14:43:49;1.60;;;1.60;;
12519;SDS011;6325;49.540;8.364;2022-09-01T14:46:17;1.40;;;1.40;;
12519;SDS011;6325;49.540;8.364;2022-09-01T14:48:44;1.60;;;1.60;;
12519;SDS011;6325;49.540;8.364;2022-09-01T14:51:18;1.73;;;1.70;;
12519;SDS011;6325;49.540;8.364;2022-09-01T14:53:47;1.40;;;1.40;;
12519;SDS011;6325;49.540;8.364;2022-09-01T14:56:16;1.80;;;1.70;;
12519;SDS011;6325;49.540;8.364;2022-09-01T14:58:43;1.70;;;1.70;;
12519;SDS011;6325;49.540;8.364;2022-09-01T15:01:11;1.50;;;1.50;;
12519;SDS011;6325;49.540;8.364;2022-09-01T15:03:39;1.50;;;1.50;;
12519;SDS011;6325;49.540;8.364;2022-09-01T15:06:06;1.50;;;1.50;;
12519;SDS011;6325;49.540;8.364;2022-09-01T15:08:36;1.50;;;1.50;;
12519;SDS011;6325;49.540;8.364;2022-09-01T15:11:06;1.40;;;1.40;;
12519;SDS011;6325;49.540;8.364;2022-09-01T15:13:36;1.58;;;1.58;;
12519;SDS011;6325;49.540;8.364;2022-09-01T15:16:04;1.50;;;1.50;;
12519;SDS011;6325;49.540;8.364;2022-09-01T15:18:38;1.50;;;1.50;;
12519;SDS011;6325;49.540;8.364;2022-09-01T15:21:05;1.40;;;1.40;;
12519;SDS011;6325;49.540;8.364;2022-09-01T15:23:32;2.35;;;1.92;;
12519;SDS011;6325;49.540;8.364;2022-09-01T15:25:58;2.80;;;2.35;;
12519;SDS011;6325;49.540;8.364;2022-09-01T15:28:25;2.35;;;2.17;;
12519;SDS011;6325;49.540;8.364;2022-09-01T15:30:54;3.00;;;2.30;;
12519;SDS011;6325;49.540;8.364;2022-09-01T15:33:22;3.50;;;2.70;;
12519;SDS011;6325;49.540;8.364;2022-09-01T15:35:48;3.85;;;2.97;;
12519;SDS011;6325;49.540;8.364;2022-09-01T15:38:18;2.38;;;2.17;;
12519;SDS011;6325;49.540;8.364;2022-09-01T15:40:46;1.90;;;1.80;;
12519;SDS011;6325;49.540;8.364;2022-09-01T15:43:13;2.38;;;2.00;;
12519;SDS011;6325;49.540;8.364;2022-09-01T15:45:40;1.70;;;1.60;;
12519;SDS011;6325;49.540;8.364;2022-09-01T15:48:11;1.80;;;1.70;;
12519;SDS011;6325;49.540;8.364;2022-09-01T15:50:39;1.90;;;1.80;;
12519;SDS011;6325;49.540;8.364;2022-09-01T15:53:06;1.90;;;1.80;;
12519;SDS011;6325;49.540;8.364;2022-09-01T15:55:37;1.93;;;1.83;;
12519;SDS011;6325;49.540;8.364;2022-09-01T15:58:06;5.47;;;3.22;;
12519;SDS011;6325;49.540;8.364;2022-09-01T16:00:34;2.07;;;1.97;;
12519;SDS011;6325;49.540;8.364;2022-09-01T16:03:01;1.55;;;1.55;;
12519;SDS011;6325;49.540;8.364;2022-09-01T16:05:29;1.70;;;1.60;;
12519;SDS011;6325;49.540;8.364;2022-09-01T16:07:57;1.58;;;1.50;;
12519;SDS011;6325;49.540;8.364;2022-09-01T16:10:26;1.70;;;1.60;;
12519;SDS011;6325;49.540;8.364;2022-09-01T16:12:54;1.60;;;1.50;;
12519;SDS011;6325;49.540;8.364;2022-09-01T16:15:23;1.30;;;1.30;;
12519;SDS011;6325;49.540;8.364;2022-09-01T16:17:54;1.40;;;1.30;;
12519;SDS011;6325;49.540;8.364;2022-09-01T16:20:43;1.73;;;1.63;;
12519;SDS011;6325;49.540;8.364;2022-09-01T16:23:18;1.38;;;1.38;;
12519;SDS011;6325;49.540;8.364;2022-09-01T16:25:47;1.40;;;1.40;;
12519;SDS011;6325;49.540;8.364;2022-09-01T16:28:25;1.58;;;1.58;;
12519;SDS011;6325;49.540;8.364;2022-09-01T16:30:56;1.40;;;1.40;;
12519;SDS011;6325;49.540;8.364;2022-09-01T16:33:46;1.30;;;1.30;;
12519;SDS011;6325;49.540;8.364;2022-09-01T16:36:21;1.60;;;1.60;;
12519;SDS011;6325;49.540;8.364;2022-09-01T16:39:02;1.50;;;1.40;;
12519;SDS011;6325;49.540;8.364;2022-09-01T16:41:39;1.50;;;1.50;;
12519;SDS011;6325;49.540;8.364;2022-09-01T16:44:16;1.50;;;1.50;;
12519;SDS011;6325;49.540;8.364;2022-09-01T16:46:54;1.50;;;1.50;;
12519;SDS011;6325;49.540;8.364;2022-09-01T16:49:29;1.60;;;1.60;;
12519;SDS011;6325;49.540;8.364;2022-09-01T16:52:05;1.50;;;1.50;;
12519;SDS011;6325;49.540;8.364;2022-09-01T16:54:46;1.70;;;1.60;;
12519;SDS011;6325;49.540;8.364;2022-09-01T16:57:26;1.50;;;1.50;;
12519;SDS011;6325;49.540;8.364;2022-09-01T17:00:00;1.55;;;1.55;;
12519;SDS011;6325;49.540;8.364;2022-09-01T17:02:32;1.40;;;1.40;;
12519;SDS011;6325;49.540;8.364;2022-09-01T17:05:07;1.73;;;1.63;;
12519;SDS011;6325;49.540;8.364;2022-09-01T17:07:44;1.40;;;1.40;;
12519;SDS011;6325;49.540;8.364;2022-09-01T17:10:21;1.40;;;1.40;;
12519;SDS011;6325;49.540;8.364;2022-09-01T17:12:57;1.40;;;1.40;;
12519;SDS011;6325;49.540;8.364;2022-09-01T17:15:39;1.20;;;1.20;;
12519;SDS011;6325;49.540;8.364;2022-09-01T17:18:13;1.20;;;1.20;;
12519;SDS011;6325;49.540;8.364;2022-09-01T17:20:48;1.30;;;1.30;;
12519;SDS011;6325;49.540;8.364;2022-09-01T17:23:21;1.30;;;1.30;;
12519;SDS011;6325;49.540;8.364;2022-09-01T17:25:53;1.20;;;1.20;;
12519;SDS011;6325;49.540;8.364;2022-09-01T17:28:26;1.20;;;1.20;;
12519;SDS011;6325;49.540;8.364;2022-09-01T17:31:02;1.20;;;1.20;;
12519;SDS011;6325;49.540;8.364;2022-09-01T17:33:39;1.20;;;1.20;;
12519;SDS011;6325;49.540;8.364;2022-09-01T17:36:19;1.23;;;1.23;;
12519;SDS011;6325;49.540;8.364;2022-09-01T17:38:56;1.30;;;1.30;;
12519;SDS011;6325;49.540;8.364;2022-09-01T17:41:29;1.38;;;1.38;;
12519;SDS011;6325;49.540;8.364;2022-09-01T17:44:06;1.10;;;1.10;;
12519;SDS011;6325;49.540;8.364;2022-09-01T17:46:47;1.33;;;1.30;;
12519;SDS011;6325;49.540;8.364;2022-09-01T17:49:20;1.30;;;1.30;;
12519;SDS011;6325;49.540;8.364;2022-09-01T17:51:52;1.30;;;1.30;;
12519;SDS011;6325;49.540;8.364;2022-09-01T17:54:29;1.20;;;1.20;;
12519;SDS011;6325;49.540;8.364;2022-09-01T17:57:04;1.27;;;1.27;;
12519;SDS011;6325;49.540;8.364;2022-09-01T17:59:39;1.30;;;1.30;;
12519;SDS011;6325;49.540;8.364;2022-09-01T18:02:28;1.52;;;1.48;;
12519;SDS011;6325;49.540;8.364;2022-09-01T18:05:14;2.05;;;1.75;;
12519;SDS011;6325;49.540;8.364;2022-09-01T18:10:31;1.67;;;1.58;;
12519;SDS011;6325;49.540;8.364;2022-09-01T18:13:03;1.60;;;1.50;;
12519;SDS011;6325;49.540;8.364;2022-09-01T18:15:38;1.95;;;1.60;;
12519;SDS011;6325;49.540;8.364;2022-09-01T18:18:15;1.40;;;1.40;;
12519;SDS011;6325;49.540;8.364;2022-09-01T18:20:53;1.80;;;1.70;;
12519;SDS011;6325;49.540;8.364;2022-09-01T18:23:24;1.77;;;1.67;;
12519;SDS011;6325;49.540;8.364;2022-09-01T18:26:02;1.70;;;1.60;;
12519;SDS011;6325;49.540;8.364;2022-09-01T18:28:35;1.40;;;1.40;;
12519;SDS011;6325;49.540;8.364;2022-09-01T18:31:04;2.13;;;2.03;;
12519;SDS011;6325;49.540;8.364;2022-09-01T18:33:48;1.95;;;1.85;;
12519;SDS011;6325;49.540;8.364;2022-09-01T18:36:30;1.75;;;1.70;;
12519;SDS011;6325;49.540;8.364;2022-09-01T18:39:04;1.80;;;1.70;;
12519;SDS011;6325;49.540;8.364;2022-09-01T18:41:39;1.60;;;1.50;;
12519;SDS011;6325;49.540;8.364;2022-09-01T18:44:18;1.50;;;1.50;;
12519;SDS011;6325;49.540;8.364;2022-09-01T18:46:59;1.65;;;1.55;;